Search for airport 
image banner adimage banner ad
image banner ad

SSBN - Belém Novo Airport

Located in Porto Alegre, Brazil

ICAO - SSBN, IATA -

Data provided by Airmate  

General information

Coordinates: S30°11'16" W51°10'58"
Elevation is 19 feet MSL.
Magnetic variation is -17° East
Rated:
View ratings: [VIEW]


View others Airports in Rio Grande do Sul

Operational data

Open for public use
Current time UTC:
Current local time:
Weather at : SBPA - Salgado Filho ( 22 km )
METAR: SBPA 032000Z 22005KT CAVOK 26/17 Q1023
TAF: TAF SBPA 031500Z 0318/0418 15007KT CAVOK TX27/0318Z TN12/0408Z BECMG 0400/0402 10001KT PROB40 0403/0410 2000 BR SCT002 BECMG 0413/0415 10007KT RMK PEU
View NOTAMs / SUP AIP / TFR affecting this airport [VIEW]
Communications frequencies: [VIEW]

Runways:

RWY identifierQFULength (ft)Width (ft)SurfaceLDA (ft)
08328198UNK
09361975UNK
27361975UNK

Airport contact information

Address: Porto Alegre Brazil

Other aviation service providers

Aviation club (not for profit)

Aeroclube Do Rio Grande Do Sul

Aeroclube Do Rio Grande Do Sul
ensino@args.com.br+55513245-6060

Satellite view of SSBN